sensor_id;sensor_type;location;lat;lon;timestamp;P1;durP1;ratioP1;P2;durP2;ratioP2
65545;SDS011;52177;55.968;37.498;2023-09-19T00:00:02;10.35;;;8.27;;
65545;SDS011;52177;55.968;37.498;2023-09-19T00:00:33;9.52;;;8.52;;
65545;SDS011;52177;55.968;37.498;2023-09-19T00:01:03;13.07;;;8.32;;
65545;SDS011;52177;55.968;37.498;2023-09-19T00:01:36;10.27;;;9.27;;
65545;SDS011;52177;55.968;37.498;2023-09-19T00:02:06;10.02;;;8.95;;
65545;SDS011;52177;55.968;37.498;2023-09-19T00:02:38;11.20;;;8.27;;
65545;SDS011;52177;55.968;37.498;2023-09-19T00:03:09;10.65;;;8.73;;
65545;SDS011;52177;55.968;37.498;2023-09-19T00:03:41;14.77;;;9.45;;
65545;SDS011;52177;55.968;37.498;2023-09-19T00:04:12;12.18;;;9.10;;
65545;SDS011;52177;55.968;37.498;2023-09-19T00:04:43;15.07;;;8.95;;
65545;SDS011;52177;55.968;37.498;2023-09-19T00:05:13;9.98;;;8.98;;
65545;SDS011;52177;55.968;37.498;2023-09-19T00:05:44;11.70;;;9.95;;
65545;SDS011;52177;55.968;37.498;2023-09-19T00:06:14;10.77;;;8.60;;
65545;SDS011;52177;55.968;37.498;2023-09-19T00:06:45;12.18;;;8.45;;
65545;SDS011;52177;55.968;37.498;2023-09-19T00:07:17;10.65;;;8.63;;
65545;SDS011;52177;55.968;37.498;2023-09-19T00:07:47;10.00;;;8.50;;
65545;SDS011;52177;55.968;37.498;2023-09-19T00:08:18;11.27;;;8.50;;
65545;SDS011;52177;55.968;37.498;2023-09-19T00:08:53;9.35;;;8.38;;
65545;SDS011;52177;55.968;37.498;2023-09-19T00:09:24;11.77;;;8.70;;
65545;SDS011;52177;55.968;37.498;2023-09-19T00:09:57;10.77;;;8.20;;
65545;SDS011;52177;55.968;37.498;2023-09-19T00:10:28;11.13;;;8.95;;
65545;SDS011;52177;55.968;37.498;2023-09-19T00:11:01;11.07;;;7.75;;
65545;SDS011;52177;55.968;37.498;2023-09-19T00:11:33;10.18;;;8.27;;
65545;SDS011;52177;55.968;37.498;2023-09-19T00:12:05;11.82;;;8.10;;
65545;SDS011;52177;55.968;37.498;2023-09-19T00:12:36;10.18;;;7.93;;
65545;SDS011;52177;55.968;37.498;2023-09-19T00:13:06;9.45;;;8.18;;
65545;SDS011;52177;55.968;37.498;2023-09-19T00:13:37;10.93;;;8.43;;
65545;SDS011;52177;55.968;37.498;2023-09-19T00:14:07;11.60;;;7.93;;
65545;SDS011;52177;55.968;37.498;2023-09-19T00:14:39;8.73;;;7.82;;
65545;SDS011;52177;55.968;37.498;2023-09-19T00:15:10;10.45;;;7.88;;
65545;SDS011;52177;55.968;37.498;2023-09-19T00:15:44;9.88;;;7.82;;
65545;SDS011;52177;55.968;37.498;2023-09-19T00:16:18;12.15;;;8.80;;
65545;SDS011;52177;55.968;37.498;2023-09-19T00:16:49;9.02;;;8.00;;
65545;SDS011;52177;55.968;37.498;2023-09-19T00:17:19;9.50;;;8.13;;
65545;SDS011;52177;55.968;37.498;2023-09-19T00:17:53;10.18;;;8.35;;
65545;SDS011;52177;55.968;37.498;2023-09-19T00:18:24;10.13;;;8.13;;
65545;SDS011;52177;55.968;37.498;2023-09-19T00:18:59;9.43;;;7.88;;
65545;SDS011;52177;55.968;37.498;2023-09-19T00:19:36;8.80;;;7.88;;
65545;SDS011;52177;55.968;37.498;2023-09-19T00:20:07;8.38;;;7.45;;
65545;SDS011;52177;55.968;37.498;2023-09-19T00:20:42;11.05;;;7.90;;
65545;SDS011;52177;55.968;37.498;2023-09-19T00:21:13;8.48;;;7.55;;
65545;SDS011;52177;55.968;37.498;2023-09-19T00:21:43;8.82;;;7.93;;
65545;SDS011;52177;55.968;37.498;2023-09-19T00:22:15;9.05;;;8.07;;
65545;SDS011;52177;55.968;37.498;2023-09-19T00:22:46;8.90;;;7.55;;
65545;SDS011;52177;55.968;37.498;2023-09-19T00:23:16;9.68;;;8.00;;
65545;SDS011;52177;55.968;37.498;2023-09-19T00:23:47;8.85;;;7.10;;
65545;SDS011;52177;55.968;37.498;2023-09-19T00:24:17;10.50;;;7.43;;
65545;SDS011;52177;55.968;37.498;2023-09-19T00:24:48;8.05;;;7.25;;
65545;SDS011;52177;55.968;37.498;2023-09-19T00:25:19;12.10;;;7.65;;
65545;SDS011;52177;55.968;37.498;2023-09-19T00:25:50;11.55;;;7.55;;
65545;SDS011;52177;55.968;37.498;2023-09-19T00:26:21;9.13;;;7.15;;
65545;SDS011;52177;55.968;37.498;2023-09-19T00:26:51;9.00;;;7.88;;
65545;SDS011;52177;55.968;37.498;2023-09-19T00:27:22;9.75;;;7.47;;
65545;SDS011;52177;55.968;37.498;2023-09-19T00:27:52;10.15;;;7.70;;
65545;SDS011;52177;55.968;37.498;2023-09-19T00:28:24;9.60;;;7.05;;
65545;SDS011;52177;55.968;37.498;2023-09-19T00:28:55;11.15;;;7.90;;
65545;SDS011;52177;55.968;37.498;2023-09-19T00:29:27;7.75;;;6.78;;
65545;SDS011;52177;55.968;37.498;2023-09-19T00:29:59;8.50;;;7.60;;
65545;SDS011;52177;55.968;37.498;2023-09-19T00:30:30;9.93;;;7.78;;
65545;SDS011;52177;55.968;37.498;2023-09-19T00:31:01;7.85;;;7.05;;
65545;SDS011;52177;55.968;37.498;2023-09-19T00:31:31;8.65;;;7.63;;
65545;SDS011;52177;55.968;37.498;2023-09-19T00:32:02;9.02;;;7.18;;
65545;SDS011;52177;55.968;37.498;2023-09-19T00:32:33;8.52;;;7.47;;
65545;SDS011;52177;55.968;37.498;2023-09-19T00:33:04;8.75;;;7.70;;
65545;SDS011;52177;55.968;37.498;2023-09-19T00:33:36;8.57;;;7.47;;
65545;SDS011;52177;55.968;37.498;2023-09-19T00:34:07;8.80;;;7.60;;
65545;SDS011;52177;55.968;37.498;2023-09-19T00:34:40;8.52;;;7.20;;
65545;SDS011;52177;55.968;37.498;2023-09-19T00:35:12;10.48;;;7.15;;
65545;SDS011;52177;55.968;37.498;2023-09-19T00:35:52;8.15;;;7.18;;
65545;SDS011;52177;55.968;37.498;2023-09-19T00:36:23;8.07;;;7.03;;
65545;SDS011;52177;55.968;37.498;2023-09-19T00:36:53;9.68;;;7.40;;
65545;SDS011;52177;55.968;37.498;2023-09-19T00:37:23;9.70;;;7.28;;
65545;SDS011;52177;55.968;37.498;2023-09-19T00:37:54;9.80;;;7.50;;
65545;SDS011;52177;55.968;37.498;2023-09-19T00:38:25;11.95;;;7.60;;
65545;SDS011;52177;55.968;37.498;2023-09-19T00:38:56;10.13;;;7.40;;
65545;SDS011;52177;55.968;37.498;2023-09-19T00:39:27;9.00;;;7.43;;
65545;SDS011;52177;55.968;37.498;2023-09-19T00:39:57;8.73;;;7.82;;
65545;SDS011;52177;55.968;37.498;2023-09-19T00:40:28;8.20;;;7.38;;
65545;SDS011;52177;55.968;37.498;2023-09-19T00:40:59;8.85;;;7.28;;
65545;SDS011;52177;55.968;37.498;2023-09-19T00:41:30;8.77;;;6.93;;
65545;SDS011;52177;55.968;37.498;2023-09-19T00:42:00;8.70;;;6.82;;
65545;SDS011;52177;55.968;37.498;2023-09-19T00:42:35;8.95;;;7.30;;
65545;SDS011;52177;55.968;37.498;2023-09-19T00:43:08;10.55;;;7.40;;
65545;SDS011;52177;55.968;37.498;2023-09-19T00:43:38;8.00;;;7.20;;
65545;SDS011;52177;55.968;37.498;2023-09-19T00:44:10;9.05;;;7.18;;
65545;SDS011;52177;55.968;37.498;2023-09-19T00:44:40;9.15;;;7.75;;
65545;SDS011;52177;55.968;37.498;2023-09-19T00:45:11;9.95;;;8.02;;
65545;SDS011;52177;55.968;37.498;2023-09-19T00:45:44;9.80;;;7.90;;
65545;SDS011;52177;55.968;37.498;2023-09-19T00:46:18;8.38;;;7.18;;
65545;SDS011;52177;55.968;37.498;2023-09-19T00:46:48;9.93;;;7.43;;
65545;SDS011;52177;55.968;37.498;2023-09-19T00:47:20;9.73;;;7.63;;
65545;SDS011;52177;55.968;37.498;2023-09-19T00:47:51;8.68;;;7.05;;
65545;SDS011;52177;55.968;37.498;2023-09-19T00:48:22;8.50;;;7.60;;
65545;SDS011;52177;55.968;37.498;2023-09-19T00:48:52;9.70;;;6.97;;
65545;SDS011;52177;55.968;37.498;2023-09-19T00:49:23;8.48;;;7.65;;
65545;SDS011;52177;55.968;37.498;2023-09-19T00:49:55;11.55;;;7.65;;
65545;SDS011;52177;55.968;37.498;2023-09-19T00:50:26;9.57;;;7.22;;
65545;SDS011;52177;55.968;37.498;2023-09-19T00:50:59;8.93;;;7.28;;
65545;SDS011;52177;55.968;37.498;2023-09-19T00:51:34;9.35;;;7.20;;
65545;SDS011;52177;55.968;37.498;2023-09-19T00:52:06;8.05;;;7.10;;
65545;SDS011;52177;55.968;37.498;2023-09-19T00:52:37;7.88;;;7.18;;
65545;SDS011;52177;55.968;37.498;2023-09-19T00:53:08;13.65;;;7.03;;
65545;SDS011;52177;55.968;37.498;2023-09-19T00:53:39;8.88;;;7.35;;
65545;SDS011;52177;55.968;37.498;2023-09-19T00:54:16;7.78;;;6.45;;
65545;SDS011;52177;55.968;37.498;2023-09-19T00:54:48;8.30;;;7.50;;
65545;SDS011;52177;55.968;37.498;2023-09-19T00:55:19;10.98;;;7.85;;
65545;SDS011;52177;55.968;37.498;2023-09-19T00:55:50;9.38;;;7.57;;
65545;SDS011;52177;55.968;37.498;2023-09-19T00:56:21;11.63;;;8.10;;
65545;SDS011;52177;55.968;37.498;2023-09-19T00:56:53;11.07;;;7.25;;
65545;SDS011;52177;55.968;37.498;2023-09-19T00:57:24;9.15;;;8.13;;
65545;SDS011;52177;55.968;37.498;2023-09-19T00:57:55;12.48;;;7.60;;
65545;SDS011;52177;55.968;37.498;2023-09-19T00:58:26;10.48;;;8.48;;
65545;SDS011;52177;55.968;37.498;2023-09-19T00:59:02;9.43;;;7.20;;
65545;SDS011;52177;55.968;37.498;2023-09-19T00:59:32;8.55;;;7.63;;
65545;SDS011;52177;55.968;37.498;2023-09-19T01:00:06;10.38;;;8.23;;
65545;SDS011;52177;55.968;37.498;2023-09-19T01:00:38;11.45;;;7.35;;
65545;SDS011;52177;55.968;37.498;2023-09-19T01:01:10;10.50;;;7.70;;
65545;SDS011;52177;55.968;37.498;2023-09-19T01:01:41;9.95;;;7.68;;
65545;SDS011;52177;55.968;37.498;2023-09-19T01:02:15;12.50;;;7.80;;
65545;SDS011;52177;55.968;37.498;2023-09-19T01:02:46;10.85;;;7.40;;
65545;SDS011;52177;55.968;37.498;2023-09-19T01:03:17;8.50;;;7.60;;
65545;SDS011;52177;55.968;37.498;2023-09-19T01:03:48;9.95;;;7.30;;
65545;SDS011;52177;55.968;37.498;2023-09-19T01:04:19;10.68;;;7.53;;
65545;SDS011;52177;55.968;37.498;2023-09-19T01:04:50;8.40;;;7.57;;
65545;SDS011;52177;55.968;37.498;2023-09-19T01:05:21;9.63;;;7.50;;
65545;SDS011;52177;55.968;37.498;2023-09-19T01:05:53;9.05;;;7.30;;
65545;SDS011;52177;55.968;37.498;2023-09-19T01:06:24;9.52;;;7.28;;
65545;SDS011;52177;55.968;37.498;2023-09-19T01:06:54;9.88;;;7.47;;
65545;SDS011;52177;55.968;37.498;2023-09-19T01:07:26;12.18;;;8.52;;
65545;SDS011;52177;55.968;37.498;2023-09-19T01:08:00;11.30;;;7.70;;
65545;SDS011;52177;55.968;37.498;2023-09-19T01:08:30;10.30;;;7.68;;
65545;SDS011;52177;55.968;37.498;2023-09-19T01:09:01;9.43;;;8.43;;
65545;SDS011;52177;55.968;37.498;2023-09-19T01:09:34;11.05;;;8.00;;
65545;SDS011;52177;55.968;37.498;2023-09-19T01:10:05;10.95;;;7.60;;
65545;SDS011;52177;55.968;37.498;2023-09-19T01:10:44;9.38;;;8.18;;
65545;SDS011;52177;55.968;37.498;2023-09-19T01:11:25;15.15;;;8.45;;
65545;SDS011;52177;55.968;37.498;2023-09-19T01:12:02;12.05;;;8.73;;
65545;SDS011;52177;55.968;37.498;2023-09-19T01:12:47;12.68;;;7.63;;
65545;SDS011;52177;55.968;37.498;2023-09-19T01:14:33;12.27;;;7.45;;
65545;SDS011;52177;55.968;37.498;2023-09-19T01:16:19;11.38;;;7.95;;
65545;SDS011;52177;55.968;37.498;2023-09-19T01:17:06;11.43;;;7.20;;
65545;SDS011;52177;55.968;37.498;2023-09-19T01:21:41;11.18;;;8.40;;
65545;SDS011;52177;55.968;37.498;2023-09-19T01:23:31;12.38;;;8.27;;
65545;SDS011;52177;55.968;37.498;2023-09-19T01:27:20;9.93;;;8.02;;
65545;SDS011;52177;55.968;37.498;2023-09-19T01:28:52;12.27;;;8.65;;
65545;SDS011;52177;55.968;37.498;2023-09-19T01:30:17;10.93;;;8.90;;
65545;SDS011;52177;55.968;37.498;2023-09-19T01:30:56;11.15;;;8.40;;
65545;SDS011;52177;55.968;37.498;2023-09-19T01:31:31;11.38;;;9.07;;
65545;SDS011;52177;55.968;37.498;2023-09-19T01:32:06;13.30;;;8.70;;
65545;SDS011;52177;55.968;37.498;2023-09-19T01:32:39;11.73;;;9.02;;
65545;SDS011;52177;55.968;37.498;2023-09-19T01:33:11;10.15;;;8.80;;
65545;SDS011;52177;55.968;37.498;2023-09-19T01:33:54;9.63;;;8.63;;
65545;SDS011;52177;55.968;37.498;2023-09-19T01:35:17;10.73;;;8.70;;
65545;SDS011;52177;55.968;37.498;2023-09-19T01:35:48;12.00;;;8.77;;
65545;SDS011;52177;55.968;37.498;2023-09-19T01:36:19;12.00;;;9.02;;
65545;SDS011;52177;55.968;37.498;2023-09-19T01:36:49;13.63;;;9.13;;
65545;SDS011;52177;55.968;37.498;2023-09-19T01:37:20;10.90;;;9.40;;
65545;SDS011;52177;55.968;37.498;2023-09-19T01:37:55;14.70;;;9.75;;
65545;SDS011;52177;55.968;37.498;2023-09-19T01:38:25;13.10;;;9.20;;
65545;SDS011;52177;55.968;37.498;2023-09-19T01:38:57;11.30;;;9.32;;
65545;SDS011;52177;55.968;37.498;2023-09-19T01:39:35;14.18;;;9.30;;
65545;SDS011;52177;55.968;37.498;2023-09-19T01:40:08;14.48;;;8.90;;
65545;SDS011;52177;55.968;37.498;2023-09-19T01:40:57;12.25;;;9.38;;
65545;SDS011;52177;55.968;37.498;2023-09-19T01:41:41;13.52;;;9.27;;
65545;SDS011;52177;55.968;37.498;2023-09-19T01:43:03;14.52;;;9.10;;
65545;SDS011;52177;55.968;37.498;2023-09-19T01:43:40;13.93;;;9.38;;
65545;SDS011;52177;55.968;37.498;2023-09-19T01:44:16;13.75;;;8.75;;
65545;SDS011;52177;55.968;37.498;2023-09-19T01:45:06;10.27;;;8.23;;
65545;SDS011;52177;55.968;37.498;2023-09-19T01:46:30;12.30;;;8.88;;
65545;SDS011;52177;55.968;37.498;2023-09-19T01:47:12;9.68;;;8.70;;
65545;SDS011;52177;55.968;37.498;2023-09-19T01:47:54;11.98;;;8.57;;
65545;SDS011;52177;55.968;37.498;2023-09-19T01:49:24;11.90;;;8.90;;
65545;SDS011;52177;55.968;37.498;2023-09-19T01:51:37;12.18;;;9.55;;
65545;SDS011;52177;55.968;37.498;2023-09-19T01:52:16;10.98;;;8.75;;
65545;SDS011;52177;55.968;37.498;2023-09-19T01:54:02;13.23;;;9.18;;
65545;SDS011;52177;55.968;37.498;2023-09-19T01:54:49;11.70;;;8.55;;
65545;SDS011;52177;55.968;37.498;2023-09-19T01:55:22;14.25;;;9.40;;
65545;SDS011;52177;55.968;37.498;2023-09-19T01:55:57;12.50;;;9.13;;
65545;SDS011;52177;55.968;37.498;2023-09-19T01:56:31;13.07;;;8.95;;
65545;SDS011;52177;55.968;37.498;2023-09-19T01:57:48;12.40;;;9.25;;
65545;SDS011;52177;55.968;37.498;2023-09-19T01:58:29;11.55;;;8.80;;
65545;SDS011;52177;55.968;37.498;2023-09-19T01:59:16;11.85;;;9.20;;
65545;SDS011;52177;55.968;37.498;2023-09-19T01:59:52;11.07;;;9.20;;
65545;SDS011;52177;55.968;37.498;2023-09-19T02:00:29;11.65;;;9.25;;
65545;SDS011;52177;55.968;37.498;2023-09-19T02:01:04;11.13;;;9.63;;
65545;SDS011;52177;55.968;37.498;2023-09-19T02:01:36;11.57;;;9.35;;
65545;SDS011;52177;55.968;37.498;2023-09-19T02:02:07;13.48;;;9.82;;
65545;SDS011;52177;55.968;37.498;2023-09-19T02:02:42;14.63;;;9.52;;
65545;SDS011;52177;55.968;37.498;2023-09-19T02:03:18;12.55;;;9.90;;
65545;SDS011;52177;55.968;37.498;2023-09-19T02:03:52;11.45;;;9.30;;
65545;SDS011;52177;55.968;37.498;2023-09-19T02:04:23;12.60;;;9.75;;
65545;SDS011;52177;55.968;37.498;2023-09-19T02:04:54;12.05;;;9.98;;
65545;SDS011;52177;55.968;37.498;2023-09-19T02:05:25;14.32;;;9.52;;
65545;SDS011;52177;55.968;37.498;2023-09-19T02:05:57;12.43;;;9.70;;
65545;SDS011;52177;55.968;37.498;2023-09-19T02:06:28;13.32;;;9.10;;
65545;SDS011;52177;55.968;37.498;2023-09-19T02:06:58;11.00;;;9.32;;
65545;SDS011;52177;55.968;37.498;2023-09-19T02:07:29;15.10;;;9.50;;
65545;SDS011;52177;55.968;37.498;2023-09-19T02:08:01;15.18;;;10.07;;
65545;SDS011;52177;55.968;37.498;2023-09-19T02:08:32;11.35;;;9.20;;
65545;SDS011;52177;55.968;37.498;2023-09-19T02:09:03;12.68;;;9.25;;
65545;SDS011;52177;55.968;37.498;2023-09-19T02:09:34;14.63;;;9.30;;
65545;SDS011;52177;55.968;37.498;2023-09-19T02:10:05;11.77;;;9.65;;
65545;SDS011;52177;55.968;37.498;2023-09-19T02:10:37;10.73;;;9.02;;
65545;SDS011;52177;55.968;37.498;2023-09-19T02:11:08;11.27;;;9.63;;
65545;SDS011;52177;55.968;37.498;2023-09-19T02:11:38;12.77;;;9.55;;
65545;SDS011;52177;55.968;37.498;2023-09-19T02:12:09;11.30;;;9.02;;
65545;SDS011;52177;55.968;37.498;2023-09-19T02:12:39;10.55;;;9.35;;
65545;SDS011;52177;55.968;37.498;2023-09-19T02:13:10;12.38;;;8.55;;
65545;SDS011;52177;55.968;37.498;2023-09-19T02:13:40;13.35;;;9.90;;
65545;SDS011;52177;55.968;37.498;2023-09-19T02:14:11;10.75;;;9.13;;
65545;SDS011;52177;55.968;37.498;2023-09-19T02:14:42;9.90;;;8.82;;
65545;SDS011;52177;55.968;37.498;2023-09-19T02:15:13;13.98;;;10.25;;
65545;SDS011;52177;55.968;37.498;2023-09-19T02:15:46;14.45;;;8.98;;
65545;SDS011;52177;55.968;37.498;2023-09-19T02:16:16;14.45;;;9.90;;
65545;SDS011;52177;55.968;37.498;2023-09-19T02:16:47;10.65;;;9.27;;
65545;SDS011;52177;55.968;37.498;2023-09-19T02:17:18;13.27;;;9.70;;
65545;SDS011;52177;55.968;37.498;2023-09-19T02:17:49;11.18;;;9.15;;
65545;SDS011;52177;55.968;37.498;2023-09-19T02:18:19;12.40;;;9.40;;
65545;SDS011;52177;55.968;37.498;2023-09-19T02:18:50;17.20;;;9.35;;
65545;SDS011;52177;55.968;37.498;2023-09-19T02:19:21;15.18;;;9.85;;
65545;SDS011;52177;55.968;37.498;2023-09-19T02:19:52;13.45;;;9.55;;
65545;SDS011;52177;55.968;37.498;2023-09-19T02:20:23;13.35;;;9.25;;
65545;SDS011;52177;55.968;37.498;2023-09-19T02:20:53;11.82;;;9.38;;
65545;SDS011;52177;55.968;37.498;2023-09-19T02:21:24;13.60;;;9.90;;
65545;SDS011;52177;55.968;37.498;2023-09-19T02:21:55;11.40;;;10.00;;
65545;SDS011;52177;55.968;37.498;2023-09-19T02:22:25;13.63;;;9.15;;
65545;SDS011;52177;55.968;37.498;2023-09-19T02:22:56;11.48;;;9.10;;
65545;SDS011;52177;55.968;37.498;2023-09-19T02:23:27;11.55;;;9.35;;
65545;SDS011;52177;55.968;37.498;2023-09-19T02:23:58;10.85;;;9.65;;
65545;SDS011;52177;55.968;37.498;2023-09-19T02:24:29;14.07;;;9.55;;
65545;SDS011;52177;55.968;37.498;2023-09-19T02:24:59;13.93;;;9.40;;
65545;SDS011;52177;55.968;37.498;2023-09-19T02:25:30;11.68;;;8.88;;
65545;SDS011;52177;55.968;37.498;2023-09-19T02:26:02;11.40;;;9.45;;
65545;SDS011;52177;55.968;37.498;2023-09-19T02:26:33;14.35;;;9.60;;
65545;SDS011;52177;55.968;37.498;2023-09-19T02:27:05;11.80;;;9.20;;
65545;SDS011;52177;55.968;37.498;2023-09-19T02:27:37;10.20;;;8.90;;
65545;SDS011;52177;55.968;37.498;2023-09-19T02:28:08;15.23;;;9.40;;
65545;SDS011;52177;55.968;37.498;2023-09-19T02:28:39;14.43;;;9.23;;
65545;SDS011;52177;55.968;37.498;2023-09-19T02:29:09;11.18;;;9.27;;
65545;SDS011;52177;55.968;37.498;2023-09-19T02:29:42;11.88;;;9.30;;
65545;SDS011;52177;55.968;37.498;2023-09-19T02:30:13;10.65;;;9.30;;
65545;SDS011;52177;55.968;37.498;2023-09-19T02:30:49;12.40;;;9.07;;
65545;SDS011;52177;55.968;37.498;2023-09-19T02:31:20;10.48;;;9.13;;
65545;SDS011;52177;55.968;37.498;2023-09-19T02:31:50;13.77;;;9.38;;
65545;SDS011;52177;55.968;37.498;2023-09-19T02:32:21;12.15;;;8.57;;
65545;SDS011;52177;55.968;37.498;2023-09-19T02:32:53;10.98;;;8.90;;
65545;SDS011;52177;55.968;37.498;2023-09-19T02:33:23;12.63;;;9.10;;
65545;SDS011;52177;55.968;37.498;2023-09-19T02:33:54;12.48;;;8.75;;
65545;SDS011;52177;55.968;37.498;2023-09-19T02:34:24;11.45;;;9.95;;
65545;SDS011;52177;55.968;37.498;2023-09-19T02:34:55;11.70;;;9.30;;
65545;SDS011;52177;55.968;37.498;2023-09-19T02:35:26;11.88;;;8.63;;
65545;SDS011;52177;55.968;37.498;2023-09-19T02:35:58;11.88;;;9.27;;
65545;SDS011;52177;55.968;37.498;2023-09-19T02:36:29;10.75;;;8.38;;
65545;SDS011;52177;55.968;37.498;2023-09-19T02:37:00;12.35;;;9.65;;
65545;SDS011;52177;55.968;37.498;2023-09-19T02:37:31;9.73;;;8.80;;
65545;SDS011;52177;55.968;37.498;2023-09-19T02:38:03;13.88;;;9.55;;
65545;SDS011;52177;55.968;37.498;2023-09-19T02:38:36;11.88;;;9.02;;
65545;SDS011;52177;55.968;37.498;2023-09-19T02:39:07;11.68;;;8.98;;
65545;SDS011;52177;55.968;37.498;2023-09-19T02:39:38;12.15;;;9.02;;
65545;SDS011;52177;55.968;37.498;2023-09-19T02:40:09;13.95;;;9.05;;
65545;SDS011;52177;55.968;37.498;2023-09-19T02:40:48;10.90;;;9.50;;
65545;SDS011;52177;55.968;37.498;2023-09-19T02:41:19;10.98;;;8.95;;
65545;SDS011;52177;55.968;37.498;2023-09-19T02:41:49;12.77;;;8.38;;
65545;SDS011;52177;55.968;37.498;2023-09-19T02:42:20;17.35;;;9.40;;
65545;SDS011;52177;55.968;37.498;2023-09-19T02:42:52;11.43;;;8.95;;
65545;SDS011;52177;55.968;37.498;2023-09-19T02:43:23;11.77;;;8.98;;
65545;SDS011;52177;55.968;37.498;2023-09-19T02:43:54;11.05;;;8.70;;
65545;SDS011;52177;55.968;37.498;2023-09-19T02:44:24;12.90;;;8.98;;
65545;SDS011;52177;55.968;37.498;2023-09-19T02:44:55;10.93;;;8.68;;
65545;SDS011;52177;55.968;37.498;2023-09-19T02:45:26;12.63;;;9.10;;
65545;SDS011;52177;55.968;37.498;2023-09-19T02:45:57;12.90;;;9.07;;
65545;SDS011;52177;55.968;37.498;2023-09-19T02:46:28;11.95;;;9.32;;
65545;SDS011;52177;55.968;37.498;2023-09-19T02:46:58;14.15;;;8.95;;
65545;SDS011;52177;55.968;37.498;2023-09-19T02:47:28;11.60;;;8.93;;
65545;SDS011;52177;55.968;37.498;2023-09-19T02:48:00;10.50;;;8.82;;
65545;SDS011;52177;55.968;37.498;2023-09-19T02:48:32;11.40;;;8.95;;
65545;SDS011;52177;55.968;37.498;2023-09-19T02:49:06;10.52;;;8.55;;
65545;SDS011;52177;55.968;37.498;2023-09-19T02:49:36;9.68;;;8.68;;
65545;SDS011;52177;55.968;37.498;2023-09-19T02:50:07;14.27;;;9.82;;
65545;SDS011;52177;55.968;37.498;2023-09-19T02:50:39;13.52;;;8.70;;
65545;SDS011;52177;55.968;37.498;2023-09-19T02:51:10;11.45;;;8.68;;
65545;SDS011;52177;55.968;37.498;2023-09-19T02:51:40;12.35;;;9.00;;
65545;SDS011;52177;55.968;37.498;2023-09-19T02:52:11;14.02;;;9.55;;
65545;SDS011;52177;55.968;37.498;2023-09-19T02:52:42;11.45;;;8.75;;
65545;SDS011;52177;55.968;37.498;2023-09-19T02:53:13;11.98;;;8.98;;
65545;SDS011;52177;55.968;37.498;2023-09-19T02:53:45;12.63;;;9.50;;
65545;SDS011;52177;55.968;37.498;2023-09-19T02:54:17;11.82;;;8.48;;
65545;SDS011;52177;55.968;37.498;2023-09-19T02:54:49;12.27;;;8.70;;
65545;SDS011;52177;55.968;37.498;2023-09-19T02:55:20;10.38;;;8.55;;
65545;SDS011;52177;55.968;37.498;2023-09-19T02:55:51;10.68;;;8.82;;
65545;SDS011;52177;55.968;37.498;2023-09-19T02:56:23;14.00;;;9.00;;
65545;SDS011;52177;55.968;37.498;2023-09-19T02:56:55;15.30;;;8.85;;
65545;SDS011;52177;55.968;37.498;2023-09-19T02:57:25;10.20;;;8.25;;
65545;SDS011;52177;55.968;37.498;2023-09-19T02:57:57;10.07;;;8.38;;
65545;SDS011;52177;55.968;37.498;2023-09-19T02:58:28;9.55;;;8.07;;
65545;SDS011;52177;55.968;37.498;2023-09-19T02:59:00;8.73;;;7.85;;
65545;SDS011;52177;55.968;37.498;2023-09-19T02:59:31;9.00;;;8.15;;
65545;SDS011;52177;55.968;37.498;2023-09-19T03:00:03;9.48;;;8.48;;
65545;SDS011;52177;55.968;37.498;2023-09-19T03:00:34;9.35;;;8.10;;
65545;SDS011;52177;55.968;37.498;2023-09-19T03:01:09;10.57;;;8.20;;
65545;SDS011;52177;55.968;37.498;2023-09-19T03:01:45;9.45;;;7.93;;
65545;SDS011;52177;55.968;37.498;2023-09-19T03:02:18;9.48;;;7.95;;
65545;SDS011;52177;55.968;37.498;2023-09-19T03:02:49;9.55;;;8.50;;
65545;SDS011;52177;55.968;37.498;2023-09-19T03:03:24;9.35;;;7.95;;
65545;SDS011;52177;55.968;37.498;2023-09-19T03:03:54;11.45;;;7.97;;
65545;SDS011;52177;55.968;37.498;2023-09-19T03:04:25;11.10;;;8.15;;
65545;SDS011;52177;55.968;37.498;2023-09-19T03:04:57;9.35;;;7.93;;
65545;SDS011;52177;55.968;37.498;2023-09-19T03:05:30;10.02;;;8.18;;
65545;SDS011;52177;55.968;37.498;2023-09-19T03:06:00;13.00;;;7.85;;
65545;SDS011;52177;55.968;37.498;2023-09-19T03:06:34;10.30;;;7.72;;
65545;SDS011;52177;55.968;37.498;2023-09-19T03:07:04;11.32;;;8.85;;
65545;SDS011;52177;55.968;37.498;2023-09-19T03:07:36;9.20;;;7.50;;
65545;SDS011;52177;55.968;37.498;2023-09-19T03:08:07;9.40;;;8.02;;
65545;SDS011;52177;55.968;37.498;2023-09-19T03:08:38;11.20;;;7.68;;
65545;SDS011;52177;55.968;37.498;2023-09-19T03:09:09;11.38;;;8.07;;
65545;SDS011;52177;55.968;37.498;2023-09-19T03:09:41;12.07;;;8.55;;
65545;SDS011;52177;55.968;37.498;2023-09-19T03:10:12;10.43;;;8.95;;
65545;SDS011;52177;55.968;37.498;2023-09-19T03:10:48;10.85;;;7.72;;
65545;SDS011;52177;55.968;37.498;2023-09-19T03:11:18;10.05;;;7.90;;
65545;SDS011;52177;55.968;37.498;2023-09-19T03:11:51;12.80;;;8.27;;
65545;SDS011;52177;55.968;37.498;2023-09-19T03:12:21;12.85;;;8.75;;
65545;SDS011;52177;55.968;37.498;2023-09-19T03:12:52;10.63;;;8.30;;
65545;SDS011;52177;55.968;37.498;2023-09-19T03:13:22;10.23;;;7.68;;
65545;SDS011;52177;55.968;37.498;2023-09-19T03:13:53;10.02;;;7.95;;
65545;SDS011;52177;55.968;37.498;2023-09-19T03:14:24;9.13;;;8.13;;
65545;SDS011;52177;55.968;37.498;2023-09-19T03:14:54;9.20;;;8.00;;
65545;SDS011;52177;55.968;37.498;2023-09-19T03:15:25;11.43;;;7.68;;
65545;SDS011;52177;55.968;37.498;2023-09-19T03:15:55;13.20;;;8.43;;
65545;SDS011;52177;55.968;37.498;2023-09-19T03:16:26;8.30;;;7.13;;
65545;SDS011;52177;55.968;37.498;2023-09-19T03:16:57;9.95;;;7.05;;
65545;SDS011;52177;55.968;37.498;2023-09-19T03:17:27;8.60;;;7.70;;
65545;SDS011;52177;55.968;37.498;2023-09-19T03:17:58;11.73;;;7.75;;
65545;SDS011;52177;55.968;37.498;2023-09-19T03:18:29;9.48;;;7.82;;
65545;SDS011;52177;55.968;37.498;2023-09-19T03:18:59;8.00;;;7.18;;
65545;SDS011;52177;55.968;37.498;2023-09-19T03:19:30;12.43;;;7.63;;
65545;SDS011;52177;55.968;37.498;2023-09-19T03:20:03;9.50;;;7.85;;
65545;SDS011;52177;55.968;37.498;2023-09-19T03:20:38;9.00;;;7.57;;
65545;SDS011;52177;55.968;37.498;2023-09-19T03:21:09;10.65;;;7.43;;
65545;SDS011;52177;55.968;37.498;2023-09-19T03:21:40;8.35;;;7.20;;
65545;SDS011;52177;55.968;37.498;2023-09-19T03:22:10;9.27;;;7.80;;
65545;SDS011;52177;55.968;37.498;2023-09-19T03:22:40;9.48;;;7.15;;
65545;SDS011;52177;55.968;37.498;2023-09-19T03:23:11;8.57;;;7.43;;
65545;SDS011;52177;55.968;37.498;2023-09-19T03:23:43;7.88;;;6.97;;
65545;SDS011;52177;55.968;37.498;2023-09-19T03:24:17;8.63;;;7.05;;
65545;SDS011;52177;55.968;37.498;2023-09-19T03:24:47;9.95;;;6.80;;
65545;SDS011;52177;55.968;37.498;2023-09-19T03:25:17;10.05;;;7.07;;
65545;SDS011;52177;55.968;37.498;2023-09-19T03:25:49;9.63;;;6.88;;
65545;SDS011;52177;55.968;37.498;2023-09-19T03:26:19;9.15;;;7.00;;
65545;SDS011;52177;55.968;37.498;2023-09-19T03:26:50;11.70;;;7.28;;
65545;SDS011;52177;55.968;37.498;2023-09-19T03:27:20;7.63;;;6.78;;
65545;SDS011;52177;55.968;37.498;2023-09-19T03:27:51;8.27;;;7.25;;
65545;SDS011;52177;55.968;37.498;2023-09-19T03:28:22;8.00;;;6.63;;
65545;SDS011;52177;55.968;37.498;2023-09-19T03:28:53;8.52;;;7.07;;